TimeCDT,TemperatureF,Dew PointF,Humidity,Sea Level PressureIn,VisibilityMPH,Wind Direction,Wind SpeedMPH,Gust SpeedMPH,PrecipitationIn,Events,Conditions,WindDirDegrees,DateUTC
12:14 AM,62.1,54.3,76,30.11,10.0,North,4.6,-,N/A,,Clear,10,2013-08-13 05:14:00
12:34 AM,61.0,54.7,80,30.11,10.0,NNE,8.1,-,N/A,,Clear,30,2013-08-13 05:34:00
12:54 AM,61.0,55.4,82,30.11,10.0,NNE,8.1,-,N/A,,Clear,30,2013-08-13 05:54:00
1:14 AM,60.3,54.9,82,30.11,10.0,NE,5.8,-,N/A,,Scattered Clouds,40,2013-08-13 06:14:00
1:34 AM,60.3,55.4,84,30.12,10.0,NE,5.8,-,N/A,,Mostly Cloudy,50,2013-08-13 06:34:00
1:54 AM,59.5,54.5,83,30.13,10.0,NE,3.5,-,N/A,,Scattered Clouds,40,2013-08-13 06:54:00
2:14 AM,58.3,54.0,86,30.13,10.0,NNE,3.5,-,N/A,,Scattered Clouds,30,2013-08-13 07:14:00
2:34 AM,58.1,54.1,87,30.13,10.0,NNE,4.6,-,N/A,,Scattered Clouds,20,2013-08-13 07:34:00
2:54 AM,58.1,54.5,88,30.14,10.0,NNE,3.5,-,N/A,,Scattered Clouds,30,2013-08-13 07:54:00
3:14 AM,58.5,54.7,87,30.14,10.0,Calm,Calm,-,N/A,,Scattered Clouds,0,2013-08-13 08:14:00
3:34 AM,57.7,54.3,88,30.15,10.0,North,3.5,-,N/A,,Clear,10,2013-08-13 08:34:00
3:54 AM,56.7,53.8,90,30.15,10.0,North,3.5,-,N/A,,Scattered Clouds,360,2013-08-13 08:54:00
4:14 AM,55.9,53.2,91,30.14,10.0,Calm,Calm,-,N/A,,Scattered Clouds,0,2013-08-13 09:14:00
4:35 AM,56.3,53.6,91,30.15,10.0,Calm,Calm,-,N/A,,Scattered Clouds,0,2013-08-13 09:35:00
4:54 AM,55.0,52.2,90,30.15,10.0,Calm,Calm,-,N/A,,Scattered Clouds,0,2013-08-13 09:54:00
5:14 AM,54.3,51.8,91,30.15,10.0,Calm,Calm,-,N/A,,Scattered Clouds,0,2013-08-13 10:14:00
5:34 AM,54.9,52.5,92,30.15,10.0,North,3.5,-,N/A,,Clear,350,2013-08-13 10:34:00
5:54 AM,54.3,52.0,92,30.15,10.0,Calm,Calm,-,N/A,,Scattered Clouds,0,2013-08-13 10:54:00
6:14 AM,53.2,50.5,91,30.16,10.0,Calm,Calm,-,N/A,,Scattered Clouds,0,2013-08-13 11:14:00
6:34 AM,53.4,51.3,92,30.16,7.0,Calm,Calm,-,N/A,,Clear,0,2013-08-13 11:34:00
6:54 AM,54.1,52.2,93,30.17,10.0,Calm,Calm,-,N/A,,Clear,0,2013-08-13 11:54:00
7:14 AM,54.9,52.7,92,30.18,10.0,Calm,Calm,-,N/A,,Clear,0,2013-08-13 12:14:00
7:34 AM,55.8,53.6,92,30.18,10.0,NE,3.5,-,N/A,,Clear,40,2013-08-13 12:34:00
7:54 AM,56.8,54.1,91,30.19,10.0,NNE,3.5,-,N/A,,Clear,30,2013-08-13 12:54:00
8:14 AM,58.3,53.8,85,30.20,10.0,ENE,3.5,-,N/A,,Clear,60,2013-08-13 13:14:00
8:34 AM,59.7,53.6,80,30.20,10.0,NE,4.6,-,N/A,,Clear,50,2013-08-13 13:34:00
8:54 AM,61.5,54.9,79,30.21,10.0,NE,3.5,-,N/A,,Clear,40,2013-08-13 13:54:00
9:14 AM,62.8,53.4,71,30.21,10.0,NNE,3.5,-,N/A,,Clear,30,2013-08-13 14:14:00
9:34 AM,63.7,52.3,67,30.21,10.0,Calm,Calm,-,N/A,,Clear,0,2013-08-13 14:34:00
9:54 AM,65.5,52.5,63,30.22,10.0,Calm,Calm,-,N/A,,Clear,0,2013-08-13 14:54:00
10:14 AM,66.2,52.3,61,30.22,10.0,NNW,3.5,-,N/A,,Clear,340,2013-08-13 15:14:00
10:34 AM,66.9,48.2,51,30.22,10.0,NNW,3.5,-,N/A,,Clear,340,2013-08-13 15:34:00
10:54 AM,67.3,49.1,52,30.22,10.0,NNW,3.5,-,N/A,,Clear,340,2013-08-13 15:54:00
11:14 AM,67.5,48.6,51,30.22,10.0,Calm,Calm,-,N/A,,Scattered Clouds,0,2013-08-13 16:14:00
11:34 AM,69.3,47.3,45,30.21,10.0,NNW,5.8,-,N/A,,Scattered Clouds,330,2013-08-13 16:34:00
11:54 AM,69.8,44.2,40,30.21,10.0,NNE,6.9,-,N/A,,Scattered Clouds,30,2013-08-13 16:54:00
12:14 PM,71.8,44.8,38,30.21,10.0,North,5.8,-,N/A,,Scattered Clouds,350,2013-08-13 17:14:00
12:34 PM,71.6,43.3,36,30.22,10.0,North,6.9,-,N/A,,Scattered Clouds,360,2013-08-13 17:34:00
12:54 PM,70.3,46.2,42,30.21,10.0,NW,3.5,-,N/A,,Mostly Cloudy,320,2013-08-13 17:54:00
1:14 PM,71.1,45.0,39,30.21,10.0,Calm,Calm,-,N/A,,Scattered Clouds,0,2013-08-13 18:14:00
1:34 PM,72.5,44.4,36,30.21,10.0,WNW,6.9,-,N/A,,Scattered Clouds,300,2013-08-13 18:34:00
1:54 PM,70.2,45.5,41,30.21,10.0,North,5.8,-,N/A,,Mostly Cloudy,350,2013-08-13 18:54:00
2:15 PM,72.7,44.1,36,30.20,10.0,NW,3.5,-,N/A,,Scattered Clouds,320,2013-08-13 19:15:00
2:34 PM,73.4,44.1,35,30.20,10.0,Calm,Calm,-,N/A,,Scattered Clouds,0,2013-08-13 19:34:00
2:54 PM,70.7,42.3,36,30.20,10.0,North,4.6,-,N/A,,Scattered Clouds,360,2013-08-13 19:54:00
3:15 PM,71.6,44.1,37,30.19,10.0,North,5.8,-,N/A,,Scattered Clouds,360,2013-08-13 20:15:00
3:34 PM,71.8,43.7,36,30.19,10.0,West,6.9,-,N/A,,Scattered Clouds,280,2013-08-13 20:34:00
3:54 PM,74.3,43.0,33,30.18,10.0,Calm,Calm,-,N/A,,Scattered Clouds,0,2013-08-13 20:54:00
4:15 PM,72.5,42.8,34,30.19,10.0,NW,8.1,-,N/A,,Scattered Clouds,320,2013-08-13 21:15:00
4:34 PM,73.8,42.8,33,30.18,10.0,North,5.8,-,N/A,,Mostly Cloudy,360,2013-08-13 21:34:00
4:54 PM,73.6,44.1,35,30.18,10.0,North,5.8,-,N/A,,Scattered Clouds,350,2013-08-13 21:54:00
5:15 PM,74.3,42.4,32,30.17,10.0,North,5.8,-,N/A,,Clear,360,2013-08-13 22:15:00
5:34 PM,74.3,41.9,31,30.17,10.0,NNE,6.9,-,N/A,,Clear,20,2013-08-13 22:34:00
5:54 PM,74.3,41.7,31,30.16,10.0,NNE,6.9,-,N/A,,Clear,20,2013-08-13 22:54:00
6:15 PM,73.9,41.2,31,30.16,10.0,NNE,6.9,-,N/A,,Clear,30,2013-08-13 23:15:00
6:34 PM,73.2,41.9,32,30.15,10.0,NNE,5.8,-,N/A,,Clear,20,2013-08-13 23:34:00
6:54 PM,72.5,42.4,34,30.15,10.0,North,4.6,-,N/A,,Clear,10,2013-08-13 23:54:00
7:15 PM,71.6,44.1,37,30.16,10.0,Calm,Calm,-,N/A,,Clear,0,2013-08-14 00:15:00
7:34 PM,70.9,44.1,38,30.16,10.0,Calm,Calm,-,N/A,,Clear,0,2013-08-14 00:34:00
7:54 PM,70.0,47.8,45,30.16,10.0,Calm,Calm,-,N/A,,Clear,0,2013-08-14 00:54:00
8:14 PM,67.6,51.3,56,30.16,10.0,Calm,Calm,-,N/A,,Clear,0,2013-08-14 01:14:00
8:34 PM,65.3,51.3,60,30.16,10.0,Calm,Calm,-,N/A,,Clear,0,2013-08-14 01:34:00
8:54 PM,62.6,51.4,67,30.17,10.0,Calm,Calm,-,N/A,,Clear,0,2013-08-14 01:54:00
9:14 PM,60.6,51.8,73,30.17,10.0,Calm,Calm,-,N/A,,Clear,0,2013-08-14 02:14:00
9:34 PM,59.7,51.4,74,30.18,10.0,Calm,Calm,-,N/A,,Clear,0,2013-08-14 02:34:00
9:54 PM,57.7,50.4,76,30.18,10.0,Calm,Calm,-,N/A,,Clear,0,2013-08-14 02:54:00
10:14 PM,57.2,50.0,77,30.18,10.0,Calm,Calm,-,N/A,,Clear,0,2013-08-14 03:14:00
10:34 PM,56.5,50.2,79,30.18,10.0,Calm,Calm,-,N/A,,Clear,0,2013-08-14 03:34:00
10:54 PM,56.1,50.2,80,30.19,10.0,Calm,Calm,-,N/A,,Clear,0,2013-08-14 03:54:00
11:14 PM,55.6,49.3,79,30.19,10.0,Calm,Calm,-,N/A,,Clear,0,2013-08-14 04:14:00
11:34 PM,55.8,49.6,80,30.19,10.0,Calm,Calm,-,N/A,,Scattered Clouds,0,2013-08-14 04:34:00
11:54 PM,56.3,50.2,80,30.19,10.0,Calm,Calm,-,N/A,,Mostly Cloudy,0,2013-08-14 04:54:00